sensor_id;sensor_type;location;lat;lon;timestamp;P1;durP1;ratioP1;P2;durP2;ratioP2
20725;SDS011;10524;48.132;8.518;2023-03-23T00:01:08;7.20;;;4.95;;
20725;SDS011;10524;48.132;8.518;2023-03-23T00:03:37;7.32;;;5.60;;
20725;SDS011;10524;48.132;8.518;2023-03-23T00:06:03;10.25;;;6.65;;
20725;SDS011;10524;48.132;8.518;2023-03-23T00:08:37;9.07;;;6.10;;
20725;SDS011;10524;48.132;8.518;2023-03-23T00:11:15;6.78;;;5.30;;
20725;SDS011;10524;48.132;8.518;2023-03-23T00:16:11;5.35;;;4.18;;
20725;SDS011;10524;48.132;8.518;2023-03-23T00:18:49;5.53;;;3.30;;
20725;SDS011;10524;48.132;8.518;2023-03-23T00:21:19;4.70;;;3.33;;
20725;SDS011;10524;48.132;8.518;2023-03-23T00:23:50;4.35;;;3.35;;
20725;SDS011;10524;48.132;8.518;2023-03-23T00:26:16;5.15;;;3.22;;
20725;SDS011;10524;48.132;8.518;2023-03-23T00:28:41;6.07;;;3.53;;
20725;SDS011;10524;48.132;8.518;2023-03-23T00:31:07;5.00;;;3.20;;
20725;SDS011;10524;48.132;8.518;2023-03-23T00:33:37;4.10;;;3.38;;
20725;SDS011;10524;48.132;8.518;2023-03-23T00:36:09;6.38;;;3.30;;
20725;SDS011;10524;48.132;8.518;2023-03-23T00:38:36;5.82;;;3.95;;
20725;SDS011;10524;48.132;8.518;2023-03-23T00:41:03;5.43;;;3.53;;
20725;SDS011;10524;48.132;8.518;2023-03-23T00:43:30;6.97;;;3.38;;
20725;SDS011;10524;48.132;8.518;2023-03-23T00:45:56;4.47;;;3.47;;
20725;SDS011;10524;48.132;8.518;2023-03-23T00:48:26;4.53;;;3.42;;
20725;SDS011;10524;48.132;8.518;2023-03-23T00:50:53;4.75;;;3.38;;
20725;SDS011;10524;48.132;8.518;2023-03-23T00:53:19;4.28;;;3.10;;
20725;SDS011;10524;48.132;8.518;2023-03-23T00:55:45;5.63;;;3.03;;
20725;SDS011;10524;48.132;8.518;2023-03-23T00:58:12;4.30;;;3.17;;
20725;SDS011;10524;48.132;8.518;2023-03-23T01:00:39;3.72;;;2.75;;
20725;SDS011;10524;48.132;8.518;2023-03-23T01:03:06;7.20;;;3.28;;
20725;SDS011;10524;48.132;8.518;2023-03-23T01:05:34;5.20;;;3.17;;
20725;SDS011;10524;48.132;8.518;2023-03-23T01:08:01;4.75;;;3.15;;
20725;SDS011;10524;48.132;8.518;2023-03-23T01:10:27;5.22;;;3.20;;
20725;SDS011;10524;48.132;8.518;2023-03-23T01:12:53;3.65;;;3.00;;
20725;SDS011;10524;48.132;8.518;2023-03-23T01:15:19;6.35;;;3.33;;
20725;SDS011;10524;48.132;8.518;2023-03-23T01:17:45;4.03;;;2.90;;
20725;SDS011;10524;48.132;8.518;2023-03-23T01:20:12;4.80;;;2.92;;
20725;SDS011;10524;48.132;8.518;2023-03-23T01:22:40;4.50;;;3.10;;
20725;SDS011;10524;48.132;8.518;2023-03-23T01:25:07;4.28;;;2.58;;
20725;SDS011;10524;48.132;8.518;2023-03-23T01:27:34;3.30;;;2.58;;
20725;SDS011;10524;48.132;8.518;2023-03-23T01:30:00;4.97;;;3.00;;
20725;SDS011;10524;48.132;8.518;2023-03-23T01:32:26;4.03;;;2.60;;
20725;SDS011;10524;48.132;8.518;2023-03-23T01:34:52;3.67;;;2.72;;
20725;SDS011;10524;48.132;8.518;2023-03-23T01:37:17;4.82;;;3.08;;
20725;SDS011;10524;48.132;8.518;2023-03-23T01:39:44;5.78;;;3.10;;
20725;SDS011;10524;48.132;8.518;2023-03-23T01:42:11;3.88;;;2.83;;
20725;SDS011;10524;48.132;8.518;2023-03-23T01:47:05;3.58;;;2.80;;
20725;SDS011;10524;48.132;8.518;2023-03-23T01:49:31;4.65;;;2.90;;
20725;SDS011;10524;48.132;8.518;2023-03-23T01:52:05;3.33;;;2.65;;
20725;SDS011;10524;48.132;8.518;2023-03-23T01:54:35;6.50;;;2.90;;
20725;SDS011;10524;48.132;8.518;2023-03-23T01:57:07;4.95;;;3.05;;
20725;SDS011;10524;48.132;8.518;2023-03-23T01:59:38;4.07;;;2.92;;
20725;SDS011;10524;48.132;8.518;2023-03-23T02:02:08;3.72;;;2.88;;
20725;SDS011;10524;48.132;8.518;2023-03-23T02:04:35;3.75;;;2.80;;
20725;SDS011;10524;48.132;8.518;2023-03-23T02:07:02;4.88;;;2.70;;
20725;SDS011;10524;48.132;8.518;2023-03-23T02:09:29;4.72;;;2.60;;
20725;SDS011;10524;48.132;8.518;2023-03-23T02:11:55;4.13;;;2.95;;
20725;SDS011;10524;48.132;8.518;2023-03-23T02:14:21;5.25;;;2.90;;
20725;SDS011;10524;48.132;8.518;2023-03-23T02:22:49;4.05;;;2.88;;
20725;SDS011;10524;48.132;8.518;2023-03-23T02:30:37;4.13;;;3.10;;
20725;SDS011;10524;48.132;8.518;2023-03-23T02:40:56;3.83;;;2.80;;
20725;SDS011;10524;48.132;8.518;2023-03-23T02:43:26;4.03;;;3.10;;
20725;SDS011;10524;48.132;8.518;2023-03-23T02:45:55;4.30;;;3.00;;
20725;SDS011;10524;48.132;8.518;2023-03-23T02:48:23;4.93;;;2.95;;
20725;SDS011;10524;48.132;8.518;2023-03-23T02:50:53;5.35;;;3.00;;
20725;SDS011;10524;48.132;8.518;2023-03-23T02:53:20;3.13;;;2.40;;
20725;SDS011;10524;48.132;8.518;2023-03-23T02:55:49;2.78;;;2.30;;
20725;SDS011;10524;48.132;8.518;2023-03-23T02:58:18;3.53;;;2.25;;
20725;SDS011;10524;48.132;8.518;2023-03-23T03:00:43;3.28;;;2.40;;
20725;SDS011;10524;48.132;8.518;2023-03-23T03:03:14;3.10;;;2.50;;
20725;SDS011;10524;48.132;8.518;2023-03-23T03:05:56;3.38;;;2.22;;
20725;SDS011;10524;48.132;8.518;2023-03-23T03:11:19;3.75;;;2.30;;
20725;SDS011;10524;48.132;8.518;2023-03-23T03:13:58;4.25;;;2.38;;
20725;SDS011;10524;48.132;8.518;2023-03-23T03:16:38;5.80;;;2.38;;
20725;SDS011;10524;48.132;8.518;2023-03-23T03:19:26;3.13;;;2.20;;
20725;SDS011;10524;48.132;8.518;2023-03-23T03:21:57;3.75;;;2.63;;
20725;SDS011;10524;48.132;8.518;2023-03-23T03:24:24;4.05;;;2.58;;
20725;SDS011;10524;48.132;8.518;2023-03-23T03:26:53;3.70;;;2.25;;
20725;SDS011;10524;48.132;8.518;2023-03-23T03:29:23;4.28;;;2.55;;
20725;SDS011;10524;48.132;8.518;2023-03-23T03:31:58;4.68;;;2.20;;
20725;SDS011;10524;48.132;8.518;2023-03-23T03:34:26;3.20;;;2.50;;
20725;SDS011;10524;48.132;8.518;2023-03-23T03:36:53;4.78;;;2.67;;
20725;SDS011;10524;48.132;8.518;2023-03-23T03:39:23;3.53;;;2.67;;
20725;SDS011;10524;48.132;8.518;2023-03-23T03:41:49;4.20;;;2.75;;
20725;SDS011;10524;48.132;8.518;2023-03-23T03:44:15;3.60;;;2.50;;
20725;SDS011;10524;48.132;8.518;2023-03-23T03:46:40;5.63;;;2.78;;
20725;SDS011;10524;48.132;8.518;2023-03-23T03:49:07;3.25;;;2.63;;
20725;SDS011;10524;48.132;8.518;2023-03-23T03:51:33;4.97;;;2.72;;
20725;SDS011;10524;48.132;8.518;2023-03-23T03:54:00;3.97;;;2.90;;
20725;SDS011;10524;48.132;8.518;2023-03-23T03:56:26;4.22;;;3.13;;
20725;SDS011;10524;48.132;8.518;2023-03-23T03:58:52;6.75;;;3.17;;
20725;SDS011;10524;48.132;8.518;2023-03-23T04:01:18;4.10;;;2.80;;
20725;SDS011;10524;48.132;8.518;2023-03-23T04:03:49;5.45;;;3.30;;
20725;SDS011;10524;48.132;8.518;2023-03-23T04:06:16;5.25;;;3.08;;
20725;SDS011;10524;48.132;8.518;2023-03-23T04:08:42;4.18;;;2.92;;
20725;SDS011;10524;48.132;8.518;2023-03-23T04:11:10;3.78;;;2.90;;
20725;SDS011;10524;48.132;8.518;2023-03-23T04:13:37;5.47;;;3.20;;
20725;SDS011;10524;48.132;8.518;2023-03-23T04:16:03;4.60;;;3.13;;
20725;SDS011;10524;48.132;8.518;2023-03-23T04:18:29;5.53;;;3.28;;
20725;SDS011;10524;48.132;8.518;2023-03-23T04:20:57;4.35;;;3.15;;
20725;SDS011;10524;48.132;8.518;2023-03-23T04:23:25;6.28;;;3.03;;
20725;SDS011;10524;48.132;8.518;2023-03-23T04:25:52;4.40;;;3.13;;
20725;SDS011;10524;48.132;8.518;2023-03-23T04:28:22;6.53;;;3.22;;
20725;SDS011;10524;48.132;8.518;2023-03-23T04:30:49;5.47;;;3.25;;
20725;SDS011;10524;48.132;8.518;2023-03-23T04:33:18;5.63;;;3.03;;
20725;SDS011;10524;48.132;8.518;2023-03-23T04:35:45;4.80;;;3.00;;
20725;SDS011;10524;48.132;8.518;2023-03-23T04:38:13;3.88;;;3.20;;
20725;SDS011;10524;48.132;8.518;2023-03-23T04:40:45;3.65;;;2.90;;
20725;SDS011;10524;48.132;8.518;2023-03-23T04:43:12;4.15;;;3.05;;
20725;SDS011;10524;48.132;8.518;2023-03-23T04:45:37;5.55;;;3.00;;
20725;SDS011;10524;48.132;8.518;2023-03-23T04:48:06;5.03;;;3.00;;
20725;SDS011;10524;48.132;8.518;2023-03-23T04:50:32;3.53;;;2.78;;
20725;SDS011;10524;48.132;8.518;2023-03-23T04:53:00;5.32;;;3.33;;
20725;SDS011;10524;48.132;8.518;2023-03-23T04:55:33;5.75;;;3.00;;
20725;SDS011;10524;48.132;8.518;2023-03-23T04:58:03;4.25;;;2.90;;
20725;SDS011;10524;48.132;8.518;2023-03-23T05:00:31;3.42;;;3.03;;
20725;SDS011;10524;48.132;8.518;2023-03-23T05:02:58;5.05;;;3.00;;
20725;SDS011;10524;48.132;8.518;2023-03-23T05:05:25;4.18;;;3.10;;
20725;SDS011;10524;48.132;8.518;2023-03-23T05:07:52;4.22;;;3.08;;
20725;SDS011;10524;48.132;8.518;2023-03-23T05:10:18;5.47;;;3.17;;
20725;SDS011;10524;48.132;8.518;2023-03-23T05:12:45;4.68;;;3.10;;
20725;SDS011;10524;48.132;8.518;2023-03-23T05:15:11;3.78;;;3.13;;
20725;SDS011;10524;48.132;8.518;2023-03-23T05:17:38;4.70;;;3.38;;
20725;SDS011;10524;48.132;8.518;2023-03-23T05:20:05;4.63;;;3.10;;
20725;SDS011;10524;48.132;8.518;2023-03-23T05:22:36;5.97;;;3.30;;
20725;SDS011;10524;48.132;8.518;2023-03-23T05:25:03;4.80;;;3.03;;
20725;SDS011;10524;48.132;8.518;2023-03-23T05:27:30;4.28;;;3.30;;
20725;SDS011;10524;48.132;8.518;2023-03-23T05:29:57;4.97;;;3.10;;
20725;SDS011;10524;48.132;8.518;2023-03-23T05:32:26;6.07;;;3.00;;
20725;SDS011;10524;48.132;8.518;2023-03-23T05:34:56;4.50;;;3.08;;
20725;SDS011;10524;48.132;8.518;2023-03-23T05:37:24;3.22;;;2.90;;
20725;SDS011;10524;48.132;8.518;2023-03-23T05:39:52;4.25;;;2.65;;
20725;SDS011;10524;48.132;8.518;2023-03-23T05:42:20;4.00;;;3.00;;
20725;SDS011;10524;48.132;8.518;2023-03-23T05:44:47;4.45;;;3.13;;
20725;SDS011;10524;48.132;8.518;2023-03-23T05:47:13;3.28;;;2.88;;
20725;SDS011;10524;48.132;8.518;2023-03-23T05:49:39;4.47;;;3.20;;
20725;SDS011;10524;48.132;8.518;2023-03-23T05:52:05;5.07;;;3.35;;
20725;SDS011;10524;48.132;8.518;2023-03-23T05:54:30;4.90;;;3.00;;
20725;SDS011;10524;48.132;8.518;2023-03-23T05:56:56;6.38;;;3.15;;
20725;SDS011;10524;48.132;8.518;2023-03-23T05:59:22;3.97;;;3.35;;
20725;SDS011;10524;48.132;8.518;2023-03-23T06:01:47;3.25;;;2.90;;
20725;SDS011;10524;48.132;8.518;2023-03-23T06:04:13;4.30;;;3.10;;
20725;SDS011;10524;48.132;8.518;2023-03-23T06:06:38;3.67;;;2.80;;
20725;SDS011;10524;48.132;8.518;2023-03-23T06:09:06;4.38;;;3.05;;
20725;SDS011;10524;48.132;8.518;2023-03-23T06:11:32;5.93;;;3.17;;
20725;SDS011;10524;48.132;8.518;2023-03-23T06:13:58;3.30;;;3.00;;
20725;SDS011;10524;48.132;8.518;2023-03-23T06:16:23;3.90;;;3.13;;
20725;SDS011;10524;48.132;8.518;2023-03-23T06:18:50;4.30;;;2.83;;
20725;SDS011;10524;48.132;8.518;2023-03-23T06:21:16;6.22;;;3.35;;
20725;SDS011;10524;48.132;8.518;2023-03-23T06:23:43;4.00;;;2.78;;
20725;SDS011;10524;48.132;8.518;2023-03-23T06:26:10;5.10;;;2.88;;
20725;SDS011;10524;48.132;8.518;2023-03-23T06:28:39;3.80;;;3.05;;
20725;SDS011;10524;48.132;8.518;2023-03-23T06:31:05;5.40;;;3.22;;
20725;SDS011;10524;48.132;8.518;2023-03-23T06:33:35;6.20;;;4.78;;
20725;SDS011;10524;48.132;8.518;2023-03-23T06:36:02;3.75;;;3.33;;
20725;SDS011;10524;48.132;8.518;2023-03-23T06:38:29;4.43;;;3.47;;
20725;SDS011;10524;48.132;8.518;2023-03-23T06:40:56;4.80;;;3.25;;
20725;SDS011;10524;48.132;8.518;2023-03-23T06:43:22;4.97;;;3.30;;
20725;SDS011;10524;48.132;8.518;2023-03-23T06:45:48;3.40;;;2.92;;
20725;SDS011;10524;48.132;8.518;2023-03-23T06:48:15;5.03;;;2.95;;
20725;SDS011;10524;48.132;8.518;2023-03-23T06:50:44;3.60;;;3.08;;
20725;SDS011;10524;48.132;8.518;2023-03-23T06:53:10;3.40;;;2.83;;
20725;SDS011;10524;48.132;8.518;2023-03-23T06:55:36;5.07;;;3.10;;
20725;SDS011;10524;48.132;8.518;2023-03-23T06:58:03;4.47;;;2.70;;
20725;SDS011;10524;48.132;8.518;2023-03-23T07:00:33;5.18;;;2.90;;
20725;SDS011;10524;48.132;8.518;2023-03-23T07:02:59;4.72;;;3.13;;
20725;SDS011;10524;48.132;8.518;2023-03-23T07:05:24;4.30;;;3.08;;
20725;SDS011;10524;48.132;8.518;2023-03-23T07:07:51;4.30;;;3.53;;
20725;SDS011;10524;48.132;8.518;2023-03-23T07:10:17;4.93;;;3.33;;
20725;SDS011;10524;48.132;8.518;2023-03-23T07:12:42;5.30;;;3.40;;
20725;SDS011;10524;48.132;8.518;2023-03-23T07:15:08;3.38;;;2.70;;
20725;SDS011;10524;48.132;8.518;2023-03-23T07:17:36;4.05;;;2.60;;
20725;SDS011;10524;48.132;8.518;2023-03-23T07:20:02;3.25;;;2.13;;
20725;SDS011;10524;48.132;8.518;2023-03-23T07:22:29;4.03;;;2.20;;
20725;SDS011;10524;48.132;8.518;2023-03-23T07:24:55;3.60;;;2.08;;
20725;SDS011;10524;48.132;8.518;2023-03-23T07:27:21;2.78;;;2.10;;
20725;SDS011;10524;48.132;8.518;2023-03-23T07:29:47;4.25;;;2.15;;
20725;SDS011;10524;48.132;8.518;2023-03-23T07:32:12;4.25;;;2.60;;
20725;SDS011;10524;48.132;8.518;2023-03-23T07:34:38;4.20;;;2.70;;
20725;SDS011;10524;48.132;8.518;2023-03-23T07:37:04;4.05;;;2.42;;
20725;SDS011;10524;48.132;8.518;2023-03-23T07:39:30;2.85;;;1.90;;
20725;SDS011;10524;48.132;8.518;2023-03-23T07:41:57;4.20;;;2.13;;
20725;SDS011;10524;48.132;8.518;2023-03-23T07:44:22;5.13;;;2.40;;
20725;SDS011;10524;48.132;8.518;2023-03-23T07:46:48;4.45;;;2.10;;
20725;SDS011;10524;48.132;8.518;2023-03-23T07:49:14;2.72;;;2.20;;
20725;SDS011;10524;48.132;8.518;2023-03-23T07:51:40;2.67;;;2.00;;
20725;SDS011;10524;48.132;8.518;2023-03-23T07:54:06;1.90;;;1.70;;
20725;SDS011;10524;48.132;8.518;2023-03-23T07:56:32;3.55;;;1.70;;
20725;SDS011;10524;48.132;8.518;2023-03-23T07:59:02;2.65;;;1.60;;
20725;SDS011;10524;48.132;8.518;2023-03-23T08:01:29;1.92;;;1.52;;
20725;SDS011;10524;48.132;8.518;2023-03-23T08:03:55;1.95;;;1.40;;
20725;SDS011;10524;48.132;8.518;2023-03-23T08:06:22;3.58;;;1.50;;
20725;SDS011;10524;48.132;8.518;2023-03-23T08:08:49;3.13;;;1.70;;
20725;SDS011;10524;48.132;8.518;2023-03-23T08:11:15;1.77;;;1.45;;
20725;SDS011;10524;48.132;8.518;2023-03-23T08:13:42;2.85;;;1.77;;
20725;SDS011;10524;48.132;8.518;2023-03-23T08:16:08;3.72;;;1.60;;
20725;SDS011;10524;48.132;8.518;2023-03-23T08:18:34;3.50;;;1.50;;
20725;SDS011;10524;48.132;8.518;2023-03-23T08:21:01;1.80;;;1.50;;
20725;SDS011;10524;48.132;8.518;2023-03-23T08:23:29;2.10;;;1.27;;
20725;SDS011;10524;48.132;8.518;2023-03-23T08:25:55;1.90;;;1.30;;
20725;SDS011;10524;48.132;8.518;2023-03-23T08:28:21;3.53;;;1.90;;
20725;SDS011;10524;48.132;8.518;2023-03-23T08:30:47;3.08;;;1.63;;
20725;SDS011;10524;48.132;8.518;2023-03-23T08:33:13;2.65;;;1.70;;
20725;SDS011;10524;48.132;8.518;2023-03-23T08:35:39;2.97;;;1.40;;
20725;SDS011;10524;48.132;8.518;2023-03-23T08:38:05;2.22;;;1.55;;
20725;SDS011;10524;48.132;8.518;2023-03-23T08:40:31;2.25;;;2.00;;
20725;SDS011;10524;48.132;8.518;2023-03-23T08:42:57;3.15;;;1.52;;
20725;SDS011;10524;48.132;8.518;2023-03-23T08:45:23;4.93;;;1.92;;
20725;SDS011;10524;48.132;8.518;2023-03-23T08:47:50;3.30;;;1.58;;
20725;SDS011;10524;48.132;8.518;2023-03-23T08:50:18;2.22;;;1.70;;
20725;SDS011;10524;48.132;8.518;2023-03-23T08:52:48;1.70;;;1.50;;
20725;SDS011;10524;48.132;8.518;2023-03-23T08:55:15;1.52;;;1.42;;
20725;SDS011;10524;48.132;8.518;2023-03-23T08:57:42;3.03;;;1.60;;
20725;SDS011;10524;48.132;8.518;2023-03-23T09:00:10;1.60;;;1.38;;
20725;SDS011;10524;48.132;8.518;2023-03-23T09:02:45;1.90;;;1.45;;
20725;SDS011;10524;48.132;8.518;2023-03-23T09:05:12;3.28;;;1.67;;
20725;SDS011;10524;48.132;8.518;2023-03-23T09:07:39;2.53;;;1.50;;
20725;SDS011;10524;48.132;8.518;2023-03-23T09:10:07;1.98;;;1.50;;
20725;SDS011;10524;48.132;8.518;2023-03-23T09:12:33;1.98;;;1.50;;
20725;SDS011;10524;48.132;8.518;2023-03-23T09:15:00;2.33;;;1.65;;
20725;SDS011;10524;48.132;8.518;2023-03-23T09:17:31;2.22;;;1.42;;
20725;SDS011;10524;48.132;8.518;2023-03-23T09:19:57;3.25;;;1.52;;
20725;SDS011;10524;48.132;8.518;2023-03-23T09:22:23;2.05;;;1.50;;
20725;SDS011;10524;48.132;8.518;2023-03-23T09:24:49;3.38;;;1.50;;
20725;SDS011;10524;48.132;8.518;2023-03-23T09:27:16;1.85;;;1.25;;
20725;SDS011;10524;48.132;8.518;2023-03-23T09:29:42;3.03;;;1.63;;
20725;SDS011;10524;48.132;8.518;2023-03-23T09:32:10;2.28;;;1.40;;
20725;SDS011;10524;48.132;8.518;2023-03-23T09:34:38;2.13;;;1.73;;
20725;SDS011;10524;48.132;8.518;2023-03-23T09:37:04;2.00;;;1.65;;
20725;SDS011;10524;48.132;8.518;2023-03-23T09:39:30;2.63;;;1.40;;
20725;SDS011;10524;48.132;8.518;2023-03-23T09:42:03;1.70;;;1.40;;
20725;SDS011;10524;48.132;8.518;2023-03-23T09:44:52;1.50;;;1.40;;
20725;SDS011;10524;48.132;8.518;2023-03-23T09:50:01;2.80;;;1.50;;
20725;SDS011;10524;48.132;8.518;2023-03-23T09:52:43;2.78;;;1.70;;
20725;SDS011;10524;48.132;8.518;2023-03-23T09:55:17;3.33;;;1.63;;
20725;SDS011;10524;48.132;8.518;2023-03-23T09:57:51;1.73;;;1.60;;
20725;SDS011;10524;48.132;8.518;2023-03-23T10:05:36;3.88;;;1.70;;
20725;SDS011;10524;48.132;8.518;2023-03-23T10:08:11;2.45;;;1.60;;
20725;SDS011;10524;48.132;8.518;2023-03-23T10:16:33;2.88;;;1.40;;
20725;SDS011;10524;48.132;8.518;2023-03-23T10:19:07;3.13;;;1.50;;
20725;SDS011;10524;48.132;8.518;2023-03-23T10:21:56;3.13;;;1.67;;
20725;SDS011;10524;48.132;8.518;2023-03-23T10:24:29;2.95;;;1.52;;
20725;SDS011;10524;48.132;8.518;2023-03-23T10:29:41;2.95;;;1.50;;
20725;SDS011;10524;48.132;8.518;2023-03-23T10:32:16;2.55;;;1.40;;
20725;SDS011;10524;48.132;8.518;2023-03-23T10:35:06;3.30;;;1.60;;
20725;SDS011;10524;48.132;8.518;2023-03-23T10:37:36;2.08;;;1.40;;
20725;SDS011;10524;48.132;8.518;2023-03-23T10:40:12;2.92;;;1.95;;
20725;SDS011;10524;48.132;8.518;2023-03-23T10:42:42;3.95;;;1.92;;
20725;SDS011;10524;48.132;8.518;2023-03-23T10:45:16;3.40;;;1.73;;
20725;SDS011;10524;48.132;8.518;2023-03-23T10:47:51;2.90;;;1.83;;
20725;SDS011;10524;48.132;8.518;2023-03-23T10:50:22;3.88;;;2.63;;
20725;SDS011;10524;48.132;8.518;2023-03-23T10:52:53;2.72;;;1.88;;
20725;SDS011;10524;48.132;8.518;2023-03-23T10:55:22;1.77;;;1.38;;
20725;SDS011;10524;48.132;8.518;2023-03-23T10:57:59;2.35;;;1.70;;
20725;SDS011;10524;48.132;8.518;2023-03-23T11:00:26;3.50;;;1.50;;
20725;SDS011;10524;48.132;8.518;2023-03-23T11:03:03;2.63;;;1.70;;
20725;SDS011;10524;48.132;8.518;2023-03-23T11:05:32;3.58;;;1.55;;
20725;SDS011;10524;48.132;8.518;2023-03-23T11:08:09;2.15;;;1.52;;
20725;SDS011;10524;48.132;8.518;2023-03-23T11:10:53;2.35;;;1.40;;
20725;SDS011;10524;48.132;8.518;2023-03-23T11:13:22;2.75;;;1.70;;
20725;SDS011;10524;48.132;8.518;2023-03-23T11:15:52;3.78;;;1.98;;
20725;SDS011;10524;48.132;8.518;2023-03-23T11:20:46;3.40;;;1.80;;
20725;SDS011;10524;48.132;8.518;2023-03-23T11:23:19;3.33;;;1.63;;
20725;SDS011;10524;48.132;8.518;2023-03-23T11:25:51;2.47;;;1.55;;
20725;SDS011;10524;48.132;8.518;2023-03-23T11:28:20;1.90;;;1.70;;
20725;SDS011;10524;48.132;8.518;2023-03-23T11:30:46;2.85;;;1.58;;
20725;SDS011;10524;48.132;8.518;2023-03-23T11:33:12;3.92;;;1.60;;
20725;SDS011;10524;48.132;8.518;2023-03-23T11:35:42;2.83;;;1.52;;
20725;SDS011;10524;48.132;8.518;2023-03-23T11:38:11;1.48;;;1.35;;
20725;SDS011;10524;48.132;8.518;2023-03-23T11:40:44;3.20;;;1.67;;
20725;SDS011;10524;48.132;8.518;2023-03-23T11:43:14;2.03;;;1.48;;
20725;SDS011;10524;48.132;8.518;2023-03-23T11:45:48;2.05;;;1.50;;
20725;SDS011;10524;48.132;8.518;2023-03-23T11:48:38;3.00;;;1.87;;
20725;SDS011;10524;48.132;8.518;2023-03-23T11:51:20;3.75;;;1.60;;
20725;SDS011;10524;48.132;8.518;2023-03-23T11:56:51;3.10;;;1.70;;
20725;SDS011;10524;48.132;8.518;2023-03-23T11:59:18;2.58;;;1.80;;
20725;SDS011;10524;48.132;8.518;2023-03-23T12:16:03;2.17;;;1.50;;
20725;SDS011;10524;48.132;8.518;2023-03-23T12:27:27;2.10;;;1.55;;
20725;SDS011;10524;48.132;8.518;2023-03-23T12:32:43;4.45;;;1.70;;
20725;SDS011;10524;48.132;8.518;2023-03-23T12:38:30;3.00;;;1.80;;
20725;SDS011;10524;48.132;8.518;2023-03-23T12:43:39;2.10;;;1.60;;
20725;SDS011;10524;48.132;8.518;2023-03-23T12:49:24;2.08;;;1.58;;
20725;SDS011;10524;48.132;8.518;2023-03-23T12:54:59;1.88;;;1.58;;
20725;SDS011;10524;48.132;8.518;2023-03-23T12:57:47;2.13;;;1.80;;
20725;SDS011;10524;48.132;8.518;2023-03-23T13:02:53;2.25;;;1.50;;
20725;SDS011;10524;48.132;8.518;2023-03-23T13:07:52;2.45;;;1.80;;
20725;SDS011;10524;48.132;8.518;2023-03-23T13:10:30;3.22;;;2.03;;
20725;SDS011;10524;48.132;8.518;2023-03-23T13:13:20;3.83;;;2.05;;
20725;SDS011;10524;48.132;8.518;2023-03-23T13:18:20;2.55;;;1.73;;
20725;SDS011;10524;48.132;8.518;2023-03-23T13:26:00;2.92;;;1.75;;
20725;SDS011;10524;48.132;8.518;2023-03-23T13:28:28;2.58;;;1.77;;
20725;SDS011;10524;48.132;8.518;2023-03-23T13:31:13;2.75;;;1.90;;
20725;SDS011;10524;48.132;8.518;2023-03-23T13:33:49;2.45;;;1.80;;
20725;SDS011;10524;48.132;8.518;2023-03-23T13:36:17;3.10;;;1.80;;
20725;SDS011;10524;48.132;8.518;2023-03-23T13:39:05;3.30;;;1.88;;
20725;SDS011;10524;48.132;8.518;2023-03-23T13:41:45;2.75;;;1.95;;
20725;SDS011;10524;48.132;8.518;2023-03-23T13:44:25;2.30;;;1.90;;
20725;SDS011;10524;48.132;8.518;2023-03-23T13:46:56;2.95;;;1.90;;
20725;SDS011;10524;48.132;8.518;2023-03-23T13:49:32;4.55;;;2.00;;
20725;SDS011;10524;48.132;8.518;2023-03-23T13:52:00;3.42;;;1.90;;
20725;SDS011;10524;48.132;8.518;2023-03-23T13:54:52;2.33;;;1.88;;
20725;SDS011;10524;48.132;8.518;2023-03-23T14:05:39;2.50;;;1.92;;
20725;SDS011;10524;48.132;8.518;2023-03-23T14:10:39;2.95;;;2.00;;
20725;SDS011;10524;48.132;8.518;2023-03-23T14:13:29;2.28;;;1.70;;
20725;SDS011;10524;48.132;8.518;2023-03-23T14:16:03;2.72;;;1.80;;
20725;SDS011;10524;48.132;8.518;2023-03-23T14:18:41;2.63;;;2.30;;
20725;SDS011;10524;48.132;8.518;2023-03-23T14:21:15;3.13;;;2.05;;
20725;SDS011;10524;48.132;8.518;2023-03-23T14:23:42;3.45;;;2.22;;
20725;SDS011;10524;48.132;8.518;2023-03-23T14:26:11;2.13;;;1.88;;
20725;SDS011;10524;48.132;8.518;2023-03-23T14:28:42;3.97;;;2.15;;
20725;SDS011;10524;48.132;8.518;2023-03-23T14:31:17;1.95;;;1.73;;
20725;SDS011;10524;48.132;8.518;2023-03-23T14:33:46;2.85;;;2.00;;
20725;SDS011;10524;48.132;8.518;2023-03-23T14:36:13;3.28;;;1.88;;
20725;SDS011;10524;48.132;8.518;2023-03-23T14:38:44;2.28;;;1.90;;
20725;SDS011;10524;48.132;8.518;2023-03-23T14:41:10;3.08;;;2.00;;
20725;SDS011;10524;48.132;8.518;2023-03-23T14:43:37;2.83;;;1.90;;
20725;SDS011;10524;48.132;8.518;2023-03-23T14:46:06;4.22;;;2.30;;
20725;SDS011;10524;48.132;8.518;2023-03-23T14:48:34;2.83;;;2.22;;
20725;SDS011;10524;48.132;8.518;2023-03-23T14:51:01;3.28;;;2.40;;
20725;SDS011;10524;48.132;8.518;2023-03-23T14:56:00;2.40;;;2.00;;
20725;SDS011;10524;48.132;8.518;2023-03-23T14:58:29;3.13;;;2.10;;
20725;SDS011;10524;48.132;8.518;2023-03-23T15:03:24;3.47;;;2.60;;
20725;SDS011;10524;48.132;8.518;2023-03-23T15:05:53;3.85;;;2.67;;
20725;SDS011;10524;48.132;8.518;2023-03-23T15:08:26;2.92;;;2.33;;
20725;SDS011;10524;48.132;8.518;2023-03-23T15:13:49;2.55;;;1.95;;
20725;SDS011;10524;48.132;8.518;2023-03-23T15:16:26;3.90;;;2.42;;
20725;SDS011;10524;48.132;8.518;2023-03-23T15:18:58;3.38;;;2.30;;
20725;SDS011;10524;48.132;8.518;2023-03-23T15:21:27;5.78;;;2.45;;
20725;SDS011;10524;48.132;8.518;2023-03-23T15:23:54;3.80;;;2.30;;
20725;SDS011;10524;48.132;8.518;2023-03-23T15:26:31;2.60;;;2.20;;
20725;SDS011;10524;48.132;8.518;2023-03-23T15:31:40;2.47;;;2.20;;
20725;SDS011;10524;48.132;8.518;2023-03-23T15:34:41;3.83;;;2.10;;
20725;SDS011;10524;48.132;8.518;2023-03-23T15:37:18;3.80;;;2.40;;
20725;SDS011;10524;48.132;8.518;2023-03-23T15:39:47;3.15;;;2.05;;
20725;SDS011;10524;48.132;8.518;2023-03-23T15:47:36;2.72;;;2.28;;
20725;SDS011;10524;48.132;8.518;2023-03-23T15:50:12;2.92;;;2.00;;
20725;SDS011;10524;48.132;8.518;2023-03-23T15:52:43;3.95;;;2.22;;
20725;SDS011;10524;48.132;8.518;2023-03-23T16:00:21;3.08;;;2.00;;
20725;SDS011;10524;48.132;8.518;2023-03-23T16:02:51;2.90;;;2.22;;
20725;SDS011;10524;48.132;8.518;2023-03-23T16:05:20;3.37;;;2.30;;
20725;SDS011;10524;48.132;8.518;2023-03-23T16:07:46;2.80;;;2.00;;
20725;SDS011;10524;48.132;8.518;2023-03-23T16:10:16;2.90;;;2.22;;
20725;SDS011;10524;48.132;8.518;2023-03-23T16:12:43;4.38;;;2.30;;
20725;SDS011;10524;48.132;8.518;2023-03-23T16:15:09;6.63;;;4.05;;
20725;SDS011;10524;48.132;8.518;2023-03-23T16:17:35;5.07;;;2.35;;
20725;SDS011;10524;48.132;8.518;2023-03-23T16:20:01;3.42;;;2.53;;
20725;SDS011;10524;48.132;8.518;2023-03-23T16:22:33;2.75;;;2.33;;
20725;SDS011;10524;48.132;8.518;2023-03-23T16:25:00;3.30;;;2.20;;
20725;SDS011;10524;48.132;8.518;2023-03-23T16:27:26;4.55;;;2.30;;
20725;SDS011;10524;48.132;8.518;2023-03-23T16:29:51;6.15;;;2.47;;
20725;SDS011;10524;48.132;8.518;2023-03-23T16:32:17;3.63;;;2.90;;
20725;SDS011;10524;48.132;8.518;2023-03-23T16:34:43;11.57;;;7.30;;
20725;SDS011;10524;48.132;8.518;2023-03-23T16:37:09;4.97;;;3.40;;
20725;SDS011;10524;48.132;8.518;2023-03-23T16:39:36;3.28;;;2.30;;
20725;SDS011;10524;48.132;8.518;2023-03-23T16:42:02;3.53;;;2.58;;
20725;SDS011;10524;48.132;8.518;2023-03-23T16:44:27;3.92;;;2.13;;
20725;SDS011;10524;48.132;8.518;2023-03-23T16:46:53;2.58;;;1.85;;
20725;SDS011;10524;48.132;8.518;2023-03-23T16:49:19;3.50;;;2.33;;
20725;SDS011;10524;48.132;8.518;2023-03-23T16:51:45;5.53;;;2.28;;
20725;SDS011;10524;48.132;8.518;2023-03-23T16:54:12;2.80;;;2.28;;
20725;SDS011;10524;48.132;8.518;2023-03-23T16:56:38;3.67;;;2.25;;
20725;SDS011;10524;48.132;8.518;2023-03-23T16:59:04;2.95;;;2.30;;
20725;SDS011;10524;48.132;8.518;2023-03-23T17:01:30;3.22;;;2.35;;
20725;SDS011;10524;48.132;8.518;2023-03-23T17:03:55;3.45;;;2.20;;
20725;SDS011;10524;48.132;8.518;2023-03-23T17:06:21;4.30;;;2.53;;
20725;SDS011;10524;48.132;8.518;2023-03-23T17:08:46;3.97;;;2.58;;
20725;SDS011;10524;48.132;8.518;2023-03-23T17:11:12;5.47;;;2.90;;